Terminal Aerodrome Forecast
Issued by NWS

Home | Current Version | Previous Version | Text Only | Print | Product List | Glossary On
Versions: 1 2 3 4 5 6 7 8 9 10 11 12 13 14
344
FTUS45 KTFX 062320
TAFBZN
TAF
KBZN 062320Z 0700/0724 06013G20KT 6SM HZ VCSH SCT050 BKN120
     FM070300 06011KT P6SM SCT050 BKN100
     FM071800 08009KT P6SM BKN100=

USA.gov is the U.S. government's official web portal to all federal, state and local government web resources and services.